Time;durP1;ratioP1;P1;durP2;ratioP2;P2;SDS_P1;SDS_P2;PMS_P1;PMS_P2;Temp;Humidity;BMP_temperature;BMP_pressure;BME280_temperature;BME280_humidity;BME280_pressure;Samples;Min_cycle;Max_cycle;Signal;HPM_P1;HPM_P2
2022/05/23 00:00:39;;;;;;;2.85;1.90;;;;;;;19.10;62.68;95833.28;10456565;28;20037;-23
2022/05/23 00:05:40;;;;;;;2.53;1.77;;;;;;;19.11;62.68;95818.03;10455700;28;20033;-23
2022/05/23 00:10:40;;;;;;;5.95;2.40;;;;;;;19.07;62.69;95801.19;10455341;28;20060;-24
2022/05/23 00:15:40;;;;;;;2.17;1.90;;;;;;;19.04;62.62;95791.09;10455790;28;20060;-23
2022/05/23 00:20:41;;;;;;;2.87;2.60;;;;;;;19.03;62.74;95770.81;10455828;28;20287;-24
2022/05/23 00:25:41;;;;;;;2.78;1.90;;;;;;;19.02;62.63;95759.00;10470302;28;20032;-24
2022/05/23 00:30:42;;;;;;;3.58;2.30;;;;;;;19.02;62.41;95734.44;10497448;28;20040;-23
2022/05/23 00:35:50;;;;;;;2.88;2.15;;;;;;;19.04;62.30;95731.91;10467433;28;20534;-23
2022/05/23 00:47:04;;;;;;;2.83;2.00;;;;;;;19.01;62.00;95719.28;10430643;28;20160;-23
2022/05/23 00:52:07;;;;;;;3.58;1.95;;;;;;;19.09;61.79;95718.25;10495958;28;20127;-24
2022/05/23 00:57:13;;;;;;;2.63;2.00;;;;;;;19.17;61.42;95715.59;10465544;28;20029;-23
2022/05/23 01:02:15;;;;;;;3.47;2.05;;;;;;;19.19;61.49;95711.38;10450865;28;20061;-24
2022/05/23 01:07:16;;;;;;;2.55;1.95;;;;;;;19.06;61.96;95712.41;10451626;28;20075;-23
2022/05/23 01:12:17;;;;;;;2.28;1.77;;;;;;;19.06;61.79;95717.47;10451944;28;20021;-23
2022/05/23 01:17:19;;;;;;;2.53;2.25;;;;;;;19.03;61.99;95722.63;10451035;28;20090;-23
2022/05/23 01:22:26;;;;;;;2.60;1.55;;;;;;;19.02;61.84;95741.25;10451243;28;20060;-23
2022/05/23 01:27:30;;;;;;;2.33;1.60;;;;;;;18.99;62.02;95738.78;10483062;28;20032;-24
2022/05/23 01:32:31;;;;;;;3.03;1.88;;;;;;;18.97;61.99;95728.63;10486047;28;20032;-22
2022/05/23 01:37:32;;;;;;;2.88;2.10;;;;;;;18.91;62.20;95730.47;10452975;28;20427;-23
2022/05/23 01:42:43;;;;;;;1.55;1.45;;;;;;;18.99;62.02;95741.31;10453282;28;20033;-22
2022/05/23 01:47:44;;;;;;;3.42;1.75;;;;;;;19.08;61.68;95736.06;10454768;28;20127;-22
2022/05/23 01:52:45;;;;;;;3.08;1.70;;;;;;;19.06;62.10;95722.56;10452967;28;20115;-23
2022/05/23 01:57:53;;;;;;;3.50;2.20;;;;;;;19.00;61.97;95717.63;10485946;28;20583;-22
2022/05/23 02:02:53;;;;;;;1.77;1.63;;;;;;;18.98;62.03;95699.88;10477708;28;20083;-23
2022/05/23 02:07:56;;;;;;;4.30;1.85;;;;;;;19.04;61.73;95688.78;10451146;28;20116;-23
2022/05/23 02:13:00;;;;;;;3.05;1.80;;;;;;;19.01;61.85;95679.50;10451971;28;20029;-24
2022/05/23 02:18:03;;;;;;;1.73;1.50;;;;;;;18.96;61.97;95690.63;10452252;28;20080;-21
2022/05/23 02:23:03;;;;;;;3.00;2.03;;;;;;;19.00;61.83;95692.25;10492604;28;20025;-21
2022/05/23 02:28:05;;;;;;;4.53;2.28;;;;;;;19.03;61.90;95677.81;10456295;28;20064;-23
2022/05/23 02:33:16;;;;;;;3.30;1.80;;;;;;;19.05;61.70;95671.00;10450299;28;20087;-22
2022/05/23 02:38:16;;;;;;;2.30;1.73;;;;;;;19.13;61.48;95683.53;10453180;28;20192;-22
2022/05/23 02:43:16;;;;;;;3.28;1.88;;;;;;;19.02;61.64;95680.38;10451173;28;20061;-21
2022/05/23 02:48:22;;;;;;;2.53;2.30;;;;;;;18.94;62.15;95758.28;10451136;28;20120;-23
2022/05/23 02:53:22;;;;;;;4.53;1.98;;;;;;;18.88;62.23;95718.66;10451652;28;20104;-22
2022/05/23 02:58:25;;;;;;;2.20;1.95;;;;;;;18.98;61.90;95739.59;10450902;28;20029;-23
2022/05/23 03:03:25;;;;;;;4.45;2.60;;;;;;;18.93;62.00;95756.63;10451722;28;20029;-22
2022/05/23 03:08:32;;;;;;;2.50;2.20;;;;;;;18.93;62.05;95762.50;10451261;28;20033;-23
2022/05/23 03:13:34;;;;;;;3.05;2.03;;;;;;;18.90;62.53;95817.53;10449870;28;20029;-23
2022/05/23 03:18:35;;;;;;;3.33;2.17;;;;;;;18.82;63.12;95850.63;10450088;28;20041;-21
2022/05/23 03:29:00;;;;;;;3.85;2.20;;;;;;;18.95;62.67;95859.72;10449882;28;20407;-23
2022/05/23 03:34:01;;;;;;;2.55;2.13;;;;;;;19.01;62.33;95872.28;10450070;28;20514;-22
2022/05/23 03:39:03;;;;;;;2.17;1.88;;;;;;;18.97;62.46;95865.63;10449201;28;20025;-23
2022/05/23 03:44:07;;;;;;;4.93;2.08;;;;;;;18.95;62.86;95892.69;10449058;28;20036;-23
2022/05/23 03:49:08;;;;;;;2.80;1.80;;;;;;;18.93;62.61;95883.44;10463994;28;20033;-23
2022/05/23 03:54:09;;;;;;;3.13;2.25;;;;;;;18.95;62.75;95861.41;10489033;28;20032;-22
2022/05/23 03:59:10;;;;;;;6.00;2.25;;;;;;;18.90;62.95;95853.03;10454918;28;20055;-22
2022/05/23 04:04:29;;;;;;;2.97;1.85;;;;;;;18.89;62.84;95856.44;10454398;28;20476;-22
2022/05/23 04:10:09;;;;;;;4.13;1.88;;;;;;;18.89;62.88;95861.50;10428834;28;20380;-24
2022/05/23 04:15:10;;;;;;;2.15;1.80;;;;;;;18.88;62.94;95853.06;10455663;28;20033;-22
2022/05/23 04:20:13;;;;;;;2.58;1.75;;;;;;;18.98;62.60;95861.34;10453993;28;20024;-23
2022/05/23 04:25:45;;;;;;;1.52;1.38;;;;;;;19.08;62.36;95835.00;10468832;28;20041;-24
2022/05/23 04:30:46;;;;;;;4.03;2.03;;;;;;;19.09;62.30;95801.16;10467693;28;20064;-22
2022/05/23 04:35:51;;;;;;;3.17;1.73;;;;;;;19.01;62.78;95780.97;10452787;28;20040;-22
2022/05/23 04:40:54;;;;;;;2.50;2.03;;;;;;;18.99;63.20;95766.66;10456249;28;20043;-21
2022/05/23 04:45:55;;;;;;;3.72;1.90;;;;;;;18.98;62.79;95759.91;10476728;28;20036;-22
2022/05/23 04:51:18;;;;;;;2.97;2.00;;;;;;;19.00;62.27;95759.00;10490380;28;20029;-22
2022/05/23 04:56:23;;;;;;;1.77;1.52;;;;;;;19.02;62.45;95723.47;10472392;28;20033;-22
2022/05/23 05:01:29;;;;;;;5.53;2.03;;;;;;;19.01;62.56;95714.22;10493705;28;20494;-22
2022/05/23 05:06:30;;;;;;;13.52;2.72;;;;;;;19.14;62.65;95715.63;10460164;28;20261;-23
2022/05/23 05:11:30;;;;;;;4.93;2.03;;;;;;;19.16;62.16;95696.19;10451909;28;20376;-22
2022/05/23 05:16:53;;;;;;;2.20;1.60;;;;;;;19.25;62.13;95663.03;10446049;28;20055;-23
2022/05/23 05:21:54;;;;;;;3.38;2.08;;;;;;;19.26;62.08;95632.53;10478743;28;20435;-22
2022/05/23 05:27:20;;;;;;;5.65;2.15;;;;;;;19.30;62.17;95613.00;10463175;28;20041;-22
2022/05/23 05:32:31;;;;;;;2.42;1.75;;;;;;;19.12;62.42;95631.97;10451040;28;20021;-22
2022/05/23 05:37:45;;;;;;;3.92;1.80;;;;;;;19.03;62.86;95601.72;10449063;28;20468;-21
2022/05/23 05:42:50;;;;;;;2.70;1.90;;;;;;;18.99;63.43;95632.25;10451201;28;20029;-23
2022/05/23 05:47:52;;;;;;;3.17;2.00;;;;;;;19.08;63.16;95644.75;10449901;28;20487;-22
2022/05/23 05:52:57;;;;;;;4.03;1.85;;;;;;;19.48;61.73;95631.25;10450064;28;20079;-22
2022/05/23 05:57:59;;;;;;;2.15;1.55;;;;;;;19.24;62.32;95618.25;10450186;28;20035;-22
2022/05/23 06:02:59;;;;;;;2.55;1.90;;;;;;;19.28;61.91;95612.22;10449579;28;20500;-22
2022/05/23 06:13:31;;;;;;;2.60;1.63;;;;;;;19.35;62.21;95591.75;10448887;28;20025;-22
2022/05/23 06:18:39;;;;;;;2.38;1.90;;;;;;;19.36;61.89;95590.91;10449717;28;20119;-23
2022/05/23 06:23:42;;;;;;;3.58;1.83;;;;;;;19.27;62.19;95573.31;10448553;28;20123;-24
2022/05/23 06:28:58;;;;;;;3.10;1.70;;;;;;;19.37;62.20;95573.97;10448846;28;20052;-21
2022/05/23 06:33:59;;;;;;;2.20;1.77;;;;;;;19.27;62.14;95578.38;10450606;28;20210;-22
2022/05/23 06:38:59;;;;;;;2.45;1.75;;;;;;;19.22;62.30;95577.66;10487882;28;20041;-22
2022/05/23 06:44:18;;;;;;;4.95;1.90;;;;;;;19.16;63.01;95582.00;10449598;28;20045;-22
2022/05/23 06:49:39;;;;;;;3.80;2.28;;;;;;;19.12;63.60;95588.84;10449814;28;20136;-22
2022/05/23 06:55:07;;;;;;;4.18;2.00;;;;;;;19.12;63.26;95588.00;10459705;28;20402;-22
2022/05/23 07:00:16;;;;;;;2.90;1.70;;;;;;;19.24;63.34;95580.19;10489786;28;20037;-22
2022/05/23 07:16:02;;;;;;;2.85;2.28;;;;;;;19.28;63.39;95599.53;10489498;28;20025;-22
2022/05/23 07:21:07;;;;;;;2.78;1.60;;;;;;;19.46;62.35;95597.44;10464809;28;20040;-22
2022/05/23 07:26:16;;;;;;;5.57;2.20;;;;;;;19.35;62.89;95593.47;10455971;28;20040;-22
2022/05/23 07:31:26;;;;;;;4.57;2.50;;;;;;;19.29;62.46;95580.91;10456495;28;20040;-22
2022/05/23 07:36:27;;;;;;;3.20;1.83;;;;;;;19.26;63.85;95588.59;10477370;28;20530;-22
2022/05/23 07:41:32;;;;;;;2.97;1.83;;;;;;;19.27;64.02;95577.56;10473268;28;20028;-22
2022/05/23 07:46:35;;;;;;;4.43;1.80;;;;;;;19.22;64.14;95561.59;10454963;28;20037;-23
2022/05/23 07:51:36;;;;;;;2.28;2.00;;;;;;;19.20;63.89;95546.41;10455575;28;20040;-24
2022/05/23 08:02:17;;;;;;;2.30;1.45;;;;;;;19.67;61.73;95500.47;10454505;28;20680;-21
2022/05/23 08:07:28;;;;;;;5.22;1.95;;;;;;;19.48;62.04;95518.69;10454098;28;20049;-22
2022/05/23 08:12:33;;;;;;;3.08;1.92;;;;;;;19.40;63.01;95513.81;10453816;28;20467;-22
2022/05/23 08:17:34;;;;;;;2.55;1.88;;;;;;;19.34;63.70;95520.75;10453801;28;20055;-22
2022/05/23 08:22:54;;;;;;;3.08;1.70;;;;;;;19.30;63.54;95514.91;10453381;28;20444;-22
2022/05/23 08:28:02;;;;;;;5.28;2.00;;;;;;;19.28;64.15;95525.94;10453968;28;20455;-23
2022/05/23 08:33:03;;;;;;;4.35;1.90;;;;;;;19.39;63.12;95503.69;10464929;28;20028;-22
2022/05/23 08:38:04;;;;;;;3.63;1.90;;;;;;;19.33;62.88;95534.31;10494847;28;20060;-23
2022/05/23 08:43:39;;;;;;;3.05;1.88;;;;;;;19.21;63.86;95549.78;10455432;28;20380;-21
2022/05/23 08:48:47;;;;;;;;;;;;;;;19.30;64.83;95549.56;10453734;28;20086;-23
2022/05/23 08:54:22;;;;;;;1.90;1.65;;;;;;;19.51;64.02;95528.81;10452510;28;20264;-22
2022/05/23 08:59:47;;;;;;;2.33;1.83;;;;;;;19.44;63.98;95545.03;10454136;28;20036;-23
2022/05/23 09:05:05;;;;;;;4.95;2.30;;;;;;;19.38;65.23;95578.16;10457472;28;20039;-22
2022/05/23 09:10:13;;;;;;;2.67;1.88;;;;;;;19.40;65.46;95582.34;10482960;28;20452;-22
2022/05/23 09:15:13;;;;;;;4.10;2.15;;;;;;;19.35;65.37;95614.59;10452804;28;20036;-22
2022/05/23 09:20:22;;;;;;;4.97;2.20;;;;;;;19.29;65.93;95652.81;10464746;28;20610;-22
2022/05/23 09:25:25;;;;;;;4.13;2.30;;;;;;;19.28;66.08;95673.97;10479994;28;20037;-23
2022/05/23 09:30:27;;;;;;;4.93;2.97;;;;;;;19.24;66.79;95719.75;10452974;28;20056;-22
2022/05/23 09:35:46;;;;;;;3.70;2.55;;;;;;;19.24;66.48;95707.88;10453082;28;20040;-21
2022/05/23 09:40:49;;;;;;;8.27;4.28;;;;;;;19.23;66.96;95718.03;10451465;28;20029;-22
2022/05/23 09:51:27;;;;;;;;;;;;;;;19.20;67.93;95847.50;10478699;28;20052;-21
2022/05/23 09:56:39;;;;;;;8.27;3.50;;;;;;;19.15;68.15;95903.38;10469645;28;20295;-22
2022/05/23 10:01:39;;;;;;;4.38;2.65;;;;;;;19.39;67.07;95828.56;10451719;28;20479;-21
2022/05/23 10:06:46;;;;;;;2.97;2.05;;;;;;;19.59;65.62;95758.78;10451101;28;20036;-22
2022/05/23 10:11:57;;;;;;;5.20;2.25;;;;;;;19.57;65.11;95660.66;10451441;28;20036;-22
2022/05/23 10:16:58;;;;;;;6.45;2.20;;;;;;;19.54;64.64;95607.41;10450352;28;20068;-22
2022/05/23 10:22:25;;;;;;;4.57;2.17;;;;;;;19.36;64.98;95555.38;10450293;28;20063;-24
2022/05/23 10:27:56;;;;;;;4.13;2.47;;;;;;;19.36;65.22;95592.59;10451001;28;20054;-23
2022/05/23 10:33:08;;;;;;;4.70;2.42;;;;;;;19.41;64.82;95567.97;10450800;28;20032;-21
2022/05/23 10:43:28;;;;;;;4.43;2.65;;;;;;;19.33;65.74;95569.81;10449683;28;20056;-23
2022/05/23 10:48:42;;;;;;;7.47;2.42;;;;;;;19.41;66.18;95560.34;10449868;28;20041;-22
2022/05/23 10:53:54;;;;;;;7.25;2.63;;;;;;;19.32;66.58;95593.50;10466352;28;20037;-25
2022/05/23 10:59:02;;;;;;;6.50;2.20;;;;;;;19.35;65.86;95613.78;10451000;28;20036;-22
2022/05/23 11:04:41;;;;;;;11.75;2.72;;;;;;;19.20;67.60;95625.06;10449036;28;20498;-22
2022/05/23 11:09:50;;;;;;;3.92;2.33;;;;;;;19.14;67.61;95598.94;10449779;28;20047;-22
2022/05/23 11:15:16;;;;;;;5.95;1.90;;;;;;;19.11;68.07;95593.94;10449942;28;20033;-21
2022/05/23 11:20:21;;;;;;;6.70;2.00;;;;;;;19.11;67.66;95558.41;10449885;28;20029;-21
2022/05/23 11:25:43;;;;;;;5.45;2.35;;;;;;;19.25;67.41;95572.50;10449124;28;20061;-22
2022/05/23 11:36:34;;;;;;;4.07;1.75;;;;;;;19.79;65.24;95562.84;10456417;28;20025;-22
2022/05/23 11:41:41;;;;;;;9.27;1.85;;;;;;;19.69;65.05;95559.66;10473782;28;20449;-22
2022/05/23 11:47:16;;;;;;;6.28;1.85;;;;;;;19.63;65.25;95574.22;10475921;28;20033;-22
2022/05/23 11:52:24;;;;;;;7.53;2.33;;;;;;;19.70;64.74;95552.91;10446872;28;20049;-21
2022/05/23 11:57:35;;;;;;;5.00;1.83;;;;;;;19.79;64.79;95535.75;10448582;28;20491;-22
2022/05/23 12:02:38;;;;;;;8.15;2.53;;;;;;;19.91;64.70;95519.38;10448026;28;20086;-21
2022/05/23 12:07:42;;;;;;;8.18;1.92;;;;;;;20.07;64.75;95508.81;10453306;28;20384;-23
2022/05/23 12:12:48;;;;;;;7.28;2.50;;;;;;;20.10;64.63;95511.28;10455387;28;20029;-21
2022/05/23 12:17:58;;;;;;;6.97;2.35;;;;;;;19.84;64.13;95495.00;10455818;28;20040;-23
2022/05/23 12:23:28;;;;;;;6.65;1.73;;;;;;;19.77;65.18;95490.94;10455456;28;20032;-24
2022/05/23 12:28:29;;;;;;;5.70;2.65;;;;;;;19.99;65.27;95492.06;10454732;28;20029;-22
2022/05/23 12:33:29;;;;;;;5.82;1.90;;;;;;;20.03;64.20;95488.56;10454493;28;20518;-22
2022/05/23 12:38:56;;;;;;;5.50;2.75;;;;;;;19.96;63.86;95489.59;10454585;28;20035;-21
2022/05/23 12:44:05;;;;;;;6.22;2.78;;;;;;;20.11;64.72;95482.44;10453401;28;20510;-21
2022/05/23 12:49:26;;;;;;;8.60;2.30;;;;;;;19.77;64.26;95471.44;10454326;28;20137;-21
2022/05/23 12:54:38;;;;;;;8.65;2.45;;;;;;;19.86;64.44;95460.22;10458405;28;20032;-22
2022/05/23 12:59:41;;;;;;;4.90;2.17;;;;;;;19.76;64.35;95464.69;10459816;28;20039;-21
2022/05/23 13:04:50;;;;;;;3.55;1.92;;;;;;;19.76;64.66;95457.06;10453161;28;20515;-23
2022/05/23 13:09:51;;;;;;;3.80;2.10;;;;;;;19.57;65.73;95452.47;10453284;28;20037;-21
2022/05/23 13:14:57;;;;;;;5.45;1.92;;;;;;;19.50;65.77;95458.59;10452881;28;20535;-22
2022/05/23 13:25:26;;;;;;;4.28;1.80;;;;;;;19.39;65.73;95437.69;10471020;28;20453;-22
2022/05/23 13:30:31;;;;;;;15.90;3.78;;;;;;;19.60;65.30;95432.13;10460524;28;20041;-23
2022/05/23 13:35:32;;;;;;;8.02;2.65;;;;;;;19.52;65.11;95452.59;10457952;28;20027;-21
2022/05/23 13:40:32;;;;;;;4.72;2.08;;;;;;;19.45;65.15;95457.88;10466072;28;20521;-23
2022/05/23 13:45:32;;;;;;;8.07;2.27;;;;;;;19.43;65.31;95469.78;10474623;28;20115;-21
2022/05/23 13:50:39;;;;;;;5.65;2.20;;;;;;;19.39;65.12;95463.06;10473127;28;20029;-21
2022/05/23 13:55:50;;;;;;;6.88;2.58;;;;;;;19.45;65.04;95463.78;10461641;28;20044;-22
2022/05/23 14:01:06;;;;;;;7.10;2.57;;;;;;;19.42;65.17;95452.88;10468890;28;20063;-21
2022/05/23 14:06:12;;;;;;;8.20;2.33;;;;;;;19.43;65.17;95437.59;10488135;28;20677;-23
2022/05/23 14:11:33;;;;;;;6.20;2.13;;;;;;;19.44;65.22;95430.81;10456748;28;20032;-23
2022/05/23 14:16:33;;;;;;;5.07;2.63;;;;;;;19.43;65.20;95435.06;10450430;28;20115;-24
2022/05/23 14:21:37;;;;;;;8.30;3.10;;;;;;;19.48;64.98;95442.56;10451174;28;20047;-22
2022/05/23 14:26:38;;;;;;;6.78;2.63;;;;;;;19.52;64.96;95434.81;10469947;28;20134;-23
2022/05/23 14:31:46;;;;;;;3.83;2.43;;;;;;;19.48;64.89;95432.41;10460508;28;20109;-22
2022/05/23 14:36:52;;;;;;;8.40;2.65;;;;;;;19.54;64.97;95424.66;10451690;28;20291;-23
2022/05/23 14:41:54;;;;;;;7.20;3.67;;;;;;;19.54;64.67;95442.41;10465170;28;20033;-23
2022/05/23 14:47:13;;;;;;;6.20;3.20;;;;;;;19.53;64.74;95441.59;10449806;28;20099;-23
2022/05/23 15:03:42;;;;;;;11.68;3.60;;;;;;;19.50;64.83;95425.59;10447980;28;20052;-25
2022/05/23 15:08:43;;;;;;;10.87;3.27;;;;;;;19.49;64.99;95393.47;10454657;28;20044;-25
2022/05/23 15:13:44;;;;;;;5.80;2.90;;;;;;;19.88;66.57;95349.25;10445309;28;20060;-21
2022/05/23 15:18:45;;;;;;;7.80;3.13;;;;;;;19.99;66.41;95357.41;10449597;28;20641;-25
2022/05/23 15:23:46;;;;;;;7.65;2.83;;;;;;;19.81;63.48;95380.78;10447566;28;20029;-24
2022/05/23 15:28:50;;;;;;;7.78;3.00;;;;;;;19.67;64.24;95403.16;10451442;28;20036;-22
2022/05/23 15:33:51;;;;;;;5.72;2.50;;;;;;;19.62;64.30;95402.44;10450954;28;20147;-23
2022/05/23 15:38:52;;;;;;;5.45;2.42;;;;;;;19.68;63.89;95415.00;10451469;28;20445;-22
2022/05/23 15:43:52;;;;;;;7.85;2.38;;;;;;;19.66;64.06;95421.81;10454760;28;20639;-23
2022/05/23 15:48:54;;;;;;;7.50;2.90;;;;;;;19.58;65.15;95423.72;10452070;28;20446;-23
2022/05/23 15:53:55;;;;;;;7.22;2.60;;;;;;;19.48;64.64;95450.16;10484545;28;20037;-24
2022/05/23 15:58:55;;;;;;;4.67;2.60;;;;;;;19.58;63.25;95461.78;10522788;28;20036;-24
2022/05/23 16:03:55;;;;;;;3.67;2.70;;;;;;;19.54;62.96;95467.81;10471590;28;20040;-24
2022/05/23 16:08:56;;;;;;;4.22;1.65;;;;;;;19.47;62.84;95476.44;10456928;28;20032;-23
2022/05/23 16:14:01;;;;;;;4.00;2.58;;;;;;;19.62;62.83;95491.31;10455419;28;20508;-22
2022/05/23 16:19:03;;;;;;;5.60;1.63;;;;;;;19.49;63.01;95495.03;10454933;28;20045;-22
2022/05/23 16:24:04;;;;;;;6.25;3.10;;;;;;;19.50;62.89;95489.06;10455993;28;20042;-23
2022/05/23 16:29:05;;;;;;;9.35;3.95;;;;;;;19.58;62.88;95493.06;10497076;28;20033;-23
2022/05/23 16:39:25;;;;;;;4.68;1.98;;;;;;;19.55;63.33;95489.78;10454670;28;20537;-23
2022/05/23 16:44:25;;;;;;;3.03;1.85;;;;;;;19.57;62.97;95498.19;10454099;28;20043;-23
2022/05/23 16:49:26;;;;;;;5.67;2.27;;;;;;;19.54;63.37;95505.88;10465786;28;20162;-25
2022/05/23 16:54:26;;;;;;;5.87;1.77;;;;;;;19.50;64.06;95517.00;10468652;28;20357;-24
2022/05/23 16:59:27;;;;;;;11.70;2.47;;;;;;;19.49;63.90;95500.09;10495476;28;20344;-23
2022/05/23 17:04:27;;;;;;;10.10;2.38;;;;;;;19.59;64.33;95486.31;10490517;28;20041;-22
2022/05/23 17:09:28;;;;;;;7.50;1.80;;;;;;;19.55;63.89;95510.09;10492428;28;20044;-22
2022/05/23 17:14:28;;;;;;;4.27;1.90;;;;;;;19.48;63.88;95506.84;10465130;28;20032;-23
2022/05/23 17:19:29;;;;;;;4.78;2.15;;;;;;;19.55;63.94;95518.53;10479106;28;20067;-22
2022/05/23 17:24:29;;;;;;;7.07;1.92;;;;;;;19.57;63.51;95514.25;10475041;28;20033;-23
2022/05/23 17:29:29;;;;;;;3.70;1.73;;;;;;;19.64;63.34;95509.88;10472952;28;20041;-22
2022/05/23 17:34:30;;;;;;;2.50;1.57;;;;;;;19.80;63.16;95521.31;10473482;28;20037;-22
2022/05/23 17:39:31;;;;;;;1.50;1.30;;;;;;;19.82;62.93;95529.72;10469920;28;20048;-23
2022/05/23 17:44:32;;;;;;;4.35;1.63;;;;;;;19.90;62.78;95522.78;10451804;28;20039;-22
2022/05/23 17:49:32;;;;;;;3.72;1.65;;;;;;;19.97;62.94;95542.91;10471047;28;20032;-23
2022/05/23 17:54:33;;;;;;;5.23;1.50;;;;;;;20.05;62.25;95543.59;10490161;28;20028;-23
2022/05/23 17:59:33;;;;;;;4.53;1.90;;;;;;;20.13;62.10;95545.94;10474683;28;20287;-24
2022/05/23 18:04:34;;;;;;;6.55;1.63;;;;;;;20.22;61.80;95545.69;10458982;28;20717;-22
2022/05/23 18:09:34;;;;;;;3.85;1.50;;;;;;;20.18;61.61;95539.03;10466800;28;20043;-21
2022/05/23 18:19:54;;;;;;;3.45;1.58;;;;;;;20.27;61.29;95548.97;10458011;28;20294;-22
2022/05/23 18:24:55;;;;;;;4.23;1.63;;;;;;;20.24;61.00;95552.44;10477394;28;20045;-23
2022/05/23 18:29:55;;;;;;;4.00;1.07;;;;;;;20.30;60.81;95559.06;10446127;28;20043;-22
2022/05/23 18:34:56;;;;;;;2.77;1.70;;;;;;;20.16;60.85;95571.25;10446231;28;20284;-22
2022/05/23 18:39:56;;;;;;;3.47;1.30;;;;;;;20.04;61.05;95553.75;10455683;28;20395;-22
2022/05/23 18:44:57;;;;;;;2.13;1.25;;;;;;;19.98;61.14;95581.84;10487474;28;20036;-23
2022/05/23 18:49:58;;;;;;;4.15;1.80;;;;;;;19.91;61.19;95572.72;10470862;28;20068;-23
2022/05/23 18:54:59;;;;;;;5.40;1.20;;;;;;;19.90;61.26;95573.56;10446108;28;20036;-23
2022/05/23 19:00:01;;;;;;;4.07;1.83;;;;;;;19.89;61.22;95576.97;10444116;28;20037;-24
2022/05/23 19:05:01;;;;;;;1.77;1.02;;;;;;;19.88;61.21;95590.56;10445535;28;20138;-22
2022/05/23 19:10:01;;;;;;;2.70;1.10;;;;;;;19.84;61.34;95584.72;10446093;28;20171;-22
2022/05/23 19:15:02;;;;;;;2.38;0.90;;;;;;;19.82;61.29;95595.78;10460749;28;20672;-22
2022/05/23 19:20:03;;;;;;;1.90;1.27;;;;;;;19.78;61.43;95604.34;10473457;28;20032;-23
2022/05/23 19:25:04;;;;;;;2.05;1.33;;;;;;;19.65;62.08;95587.69;10456300;28;20025;-22
2022/05/23 19:30:06;;;;;;;2.78;0.90;;;;;;;19.72;61.90;95599.41;10457692;28;20036;-23
2022/05/23 19:35:08;;;;;;;3.35;0.77;;;;;;;19.80;61.77;95597.53;10482056;28;20116;-23
2022/05/23 19:40:11;;;;;;;2.70;0.80;;;;;;;19.78;61.68;95601.81;10486781;28;20032;-23
2022/05/23 19:45:13;;;;;;;2.38;0.90;;;;;;;19.76;61.71;95601.81;10456789;28;20426;-22
2022/05/23 19:50:13;;;;;;;3.17;0.98;;;;;;;19.74;62.01;95597.66;10456536;28;20499;-23
2022/05/23 19:55:15;;;;;;;2.57;1.30;;;;;;;19.73;61.74;95594.28;10456809;28;20127;-22
2022/05/23 20:00:20;;;;;;;2.03;0.52;;;;;;;19.60;62.06;95576.84;10473254;28;20038;-22
2022/05/23 20:10:40;;;;;;;1.50;0.88;;;;;;;19.47;62.31;95610.97;10475861;28;20064;-25
2022/05/23 20:15:40;;;;;;;1.15;0.60;;;;;;;19.58;62.12;95612.41;10475369;28;20102;-24
2022/05/23 20:20:44;;;;;;;1.55;0.70;;;;;;;19.44;62.54;95618.66;10475162;28;20078;-22
2022/05/23 20:25:46;;;;;;;1.70;0.65;;;;;;;19.33;62.78;95621.41;10464870;28;20491;-23
2022/05/23 20:30:47;;;;;;;0.80;0.50;;;;;;;19.30;62.84;95630.78;10465239;28;20084;-22
2022/05/23 20:35:47;;;;;;;0.95;0.55;;;;;;;19.30;62.88;95630.78;10463739;28;20535;-24
2022/05/23 20:40:48;;;;;;;1.60;0.90;;;;;;;19.28;63.25;95638.44;10471252;28;20044;-23
2022/05/23 20:45:48;;;;;;;1.23;0.60;;;;;;;19.23;63.09;95635.16;10493795;28;20037;-24
2022/05/23 20:50:49;;;;;;;0.55;0.45;;;;;;;19.37;62.80;95629.78;10476220;28;20037;-23
2022/05/23 20:55:49;;;;;;;0.55;0.50;;;;;;;19.34;63.29;95634.94;10470481;28;20029;-23
2022/05/23 21:00:51;;;;;;;1.58;0.60;;;;;;;19.31;62.85;95652.75;10495655;28;20478;-23
2022/05/23 21:05:52;;;;;;;2.10;0.50;;;;;;;19.27;63.54;95661.31;10463847;28;20441;-21
2022/05/23 21:10:52;;;;;;;0.80;0.60;;;;;;;19.33;63.55;95646.78;10453854;28;20041;-23
2022/05/23 21:15:53;;;;;;;1.13;0.50;;;;;;;19.36;63.37;95661.13;10453740;28;20040;-23
2022/05/23 21:20:54;;;;;;;0.90;0.60;;;;;;;19.34;63.62;95652.72;10453227;28;20086;-23
2022/05/23 21:26:06;;;;;;;1.30;0.60;;;;;;;19.30;64.52;95679.00;10452845;28;20037;-22
2022/05/23 21:31:06;;;;;;;1.38;0.60;;;;;;;19.24;64.85;95684.22;10453981;28;20033;-22
2022/05/23 21:36:07;;;;;;;0.60;0.50;;;;;;;19.24;64.78;95691.81;10452690;28;20408;-23
2022/05/23 21:46:30;;;;;;;0.70;0.55;;;;;;;19.41;63.97;95700.75;10452231;28;20123;-24
2022/05/23 21:51:30;;;;;;;1.55;0.50;;;;;;;19.31;64.33;95706.03;10452674;28;20466;-22
2022/05/23 21:56:32;;;;;;;1.27;0.50;;;;;;;19.29;64.30;95706.09;10473168;28;20029;-23
2022/05/23 22:01:51;;;;;;;3.70;0.88;;;;;;;19.19;64.71;95708.81;10492831;28;20340;-23
2022/05/23 22:06:54;;;;;;;0.73;0.60;;;;;;;19.17;64.06;95705.47;10463264;28;20395;-23
2022/05/23 22:11:54;;;;;;;2.42;0.70;;;;;;;19.10;63.54;95706.44;10450945;28;20431;-24
2022/05/23 22:16:56;;;;;;;1.13;0.50;;;;;;;19.11;63.73;95710.63;10451892;28;20035;-22
2022/05/23 22:22:01;;;;;;;0.85;0.30;;;;;;;19.15;63.12;95707.16;10450960;28;20084;-23
2022/05/23 22:27:04;;;;;;;1.20;0.50;;;;;;;19.13;63.08;95711.44;10450622;28;20075;-23
2022/05/23 22:32:06;;;;;;;1.15;0.50;;;;;;;19.13;62.94;95719.03;10451985;28;20040;-23
2022/05/23 22:37:08;;;;;;;0.52;0.45;;;;;;;19.26;62.65;95715.47;10480907;28;20486;-24
2022/05/23 22:42:09;;;;;;;1.33;0.70;;;;;;;19.31;62.41;95711.13;10463957;28;20514;-23
2022/05/23 22:47:09;;;;;;;1.17;0.70;;;;;;;19.16;62.75;95714.75;10450286;28;20029;-24
2022/05/23 22:52:09;;;;;;;1.03;0.70;;;;;;;19.17;62.58;95706.28;10472201;28;20031;-24
2022/05/23 22:57:18;;;;;;;0.67;0.40;;;;;;;19.17;62.34;95705.47;10449726;28;20032;-24
2022/05/23 23:02:19;;;;;;;1.38;0.90;;;;;;;19.09;63.10;95699.69;10485804;28;20341;-24
2022/05/23 23:07:20;;;;;;;1.00;0.80;;;;;;;19.11;62.82;95693.72;10491323;28;20115;-23
2022/05/23 23:12:22;;;;;;;1.67;0.68;;;;;;;19.11;62.80;95692.88;10450079;28;20037;-23
2022/05/23 23:17:22;;;;;;;1.47;0.63;;;;;;;19.11;62.93;95685.25;10448703;28;20025;-24
2022/05/23 23:22:23;;;;;;;2.73;0.90;;;;;;;19.01;63.13;95668.56;10449761;28;20049;-23
2022/05/23 23:27:23;;;;;;;1.17;0.70;;;;;;;19.09;63.08;95681.94;10449380;28;20495;-25
2022/05/23 23:32:24;;;;;;;4.93;0.95;;;;;;;19.18;62.80;95689.38;10449495;28;20040;-22
2022/05/23 23:42:46;;;;;;;2.83;0.90;;;;;;;19.19;62.82;95673.31;10449515;28;20029;-23
2022/05/23 23:47:49;;;;;;;2.65;1.38;;;;;;;19.17;63.35;95680.09;10448559;28;20135;-23
2022/05/23 23:52:49;;;;;;;0.80;0.80;;;;;;;19.11;63.47;95680.19;10448679;28;20602;-24
2022/05/23 23:57:50;;;;;;;2.05;0.80;;;;;;;19.10;63.49;95681.06;10448688;28;20154;-23
